Time;durP1;ratioP1;P1;durP2;ratioP2;P2;SDS_P1;SDS_P2;PMS_P1;PMS_P2;Temp;Humidity;BMP_temperature;BMP_pressure;BME280_temperature;BME280_humidity;BME280_pressure;Samples;Min_cycle;Max_cycle;Signal;HPM_P1;HPM_P2
2022/09/23 00:02:20;;;;;;;106.20;100.60;;;13.10;99.90;;;;;;5051491;28;20445;-67
2022/09/23 00:04:46;;;;;;;103.77;98.37;;;13.10;99.90;;;;;;5053892;28;20467;-66
2022/09/23 00:07:11;;;;;;;99.77;94.60;;;13.10;99.90;;;;;;5081350;28;20421;-67
2022/09/23 00:09:37;;;;;;;103.00;97.60;;;13.10;99.90;;;;;;5089020;28;20401;-67
2022/09/23 00:12:02;;;;;;;99.13;94.03;;;13.00;99.90;;;;;;5089715;28;20704;-67
2022/09/23 00:14:28;;;;;;;108.47;102.87;;;12.90;99.90;;;;;;5092220;28;20496;-67
2022/09/23 00:16:53;;;;;;;108.38;102.88;;;12.80;99.90;;;;;;5089726;28;20540;-67
2022/09/23 00:19:20;;;;;;;110.77;105.10;;;12.80;99.90;;;;;;5088792;28;20374;-68
2022/09/23 00:21:46;;;;;;;114.00;108.22;;;12.80;99.90;;;;;;5087835;28;20386;-67
2022/09/23 00:24:11;;;;;;;108.18;102.47;;;12.80;99.90;;;;;;5091088;28;20462;-67
2022/09/23 00:26:37;;;;;;;113.63;107.77;;;12.80;99.90;;;;;;5090074;28;20394;-67
2022/09/23 00:29:02;;;;;;;115.33;109.33;;;12.80;99.90;;;;;;5089071;28;20377;-67
2022/09/23 00:31:28;;;;;;;114.00;108.20;;;12.80;99.90;;;;;;5090590;28;20441;-67
2022/09/23 00:33:58;;;;;;;112.72;106.72;;;12.80;99.90;;;;;;5091494;28;20429;-67
2022/09/23 00:36:25;;;;;;;103.80;98.32;;;12.80;99.90;;;;;;5092127;28;20710;-67
2022/09/23 00:38:50;;;;;;;105.00;99.53;;;12.70;99.90;;;;;;5089176;28;20394;-67
2022/09/23 00:41:16;;;;;;;106.30;100.80;;;12.70;99.90;;;;;;5089147;28;20390;-67
2022/09/23 00:43:51;;;;;;;105.23;99.93;;;12.70;99.90;;;;;;5089375;28;20666;-67
2022/09/23 00:46:35;;;;;;;102.67;97.47;;;12.70;99.90;;;;;;5092380;28;20604;-67
2022/09/23 00:49:24;;;;;;;110.97;105.28;;;12.60;99.90;;;;;;5090902;28;20783;-67
2022/09/23 00:51:57;;;;;;;106.18;100.65;;;12.50;99.90;;;;;;5090852;28;20870;-67
2022/09/23 00:54:26;;;;;;;105.60;100.20;;;12.50;99.90;;;;;;5091927;28;20685;-67
2022/09/23 00:56:53;;;;;;;109.73;104.13;;;12.50;99.90;;;;;;5093492;28;20848;-67
2022/09/23 00:59:20;;;;;;;97.78;92.78;;;12.40;99.90;;;;;;5091309;28;20373;-67
2022/09/23 01:01:48;;;;;;;111.97;106.28;;;12.50;99.90;;;;;;5090080;28;20386;-67
2022/09/23 01:04:14;;;;;;;100.32;95.13;;;12.40;99.90;;;;;;5090626;28;20448;-67
2022/09/23 01:06:40;;;;;;;99.07;93.90;;;12.50;99.90;;;;;;5090218;28;20426;-68
2022/09/23 01:09:06;;;;;;;102.63;97.20;;;12.40;99.90;;;;;;5088330;28;20496;-67
2022/09/23 01:12:08;;;;;;;100.37;95.03;;;12.40;99.90;;;;;;5087403;28;20860;-67
2022/09/23 01:15:04;;;;;;;83.70;79.22;;;12.40;99.90;;;;;;5087258;28;20430;-67
2022/09/23 01:17:38;;;;;;;92.47;87.57;;;12.40;99.90;;;;;;5087729;28;20762;-67
2022/09/23 01:20:24;;;;;;;95.88;90.88;;;12.40;99.90;;;;;;5091151;28;20382;-67
2022/09/23 01:23:06;;;;;;;100.70;95.50;;;12.40;99.90;;;;;;5091920;28;20378;-67
2022/09/23 01:25:50;;;;;;;100.38;95.10;;;12.40;99.90;;;;;;5091923;28;20666;-67
2022/09/23 01:28:25;;;;;;;98.05;92.95;;;12.40;99.90;;;;;;5089328;28;20463;-67
2022/09/23 01:31:11;;;;;;;109.43;103.70;;;12.30;99.90;;;;;;5089670;28;20481;-67
2022/09/23 01:33:55;;;;;;;106.50;100.87;;;12.30;99.90;;;;;;5036775;28;20443;-67
2022/09/23 01:36:28;;;;;;;99.20;94.18;;;12.30;99.90;;;;;;5088753;28;20378;-67
2022/09/23 01:38:59;;;;;;;95.57;90.68;;;12.30;99.90;;;;;;5094428;28;20381;-67
2022/09/23 01:41:47;;;;;;;89.38;84.88;;;12.30;99.90;;;;;;5091700;28;20415;-67
2022/09/23 01:44:42;;;;;;;98.93;93.90;;;12.20;99.90;;;;;;5089836;28;20642;-67
2022/09/23 01:47:16;;;;;;;96.00;91.00;;;12.20;99.90;;;;;;5090401;28;20461;-67
2022/09/23 01:53:05;;;;;;;102.18;96.88;;;12.20;99.90;;;;;;5091663;28;20402;-67
2022/09/23 01:55:35;;;;;;;104.90;99.43;;;12.20;99.90;;;;;;5092341;28;20401;-67
2022/09/23 01:58:04;;;;;;;94.85;89.95;;;12.30;99.90;;;;;;5092764;28;20374;-67
2022/09/23 02:00:34;;;;;;;100.18;95.05;;;12.20;99.90;;;;;;5094153;28;20378;-66
2022/09/23 02:03:12;;;;;;;102.90;97.60;;;12.20;99.90;;;;;;5094152;28;20382;-67
2022/09/23 02:05:48;;;;;;;99.18;93.97;;;12.20;99.90;;;;;;5094286;28;20800;-66
2022/09/23 02:08:18;;;;;;;115.60;109.72;;;12.10;99.90;;;;;;5095082;28;20798;-67
2022/09/23 02:10:48;;;;;;;111.05;105.32;;;12.20;99.90;;;;;;5092725;28;20396;-66
2022/09/23 02:13:28;;;;;;;111.93;106.15;;;12.20;99.90;;;;;;5092555;28;20496;-67
2022/09/23 02:16:00;;;;;;;110.28;104.60;;;12.10;99.90;;;;;;5092124;28;20609;-67
2022/09/23 02:18:32;;;;;;;106.75;101.30;;;12.10;99.90;;;;;;5088862;28;20484;-66
2022/09/23 02:21:03;;;;;;;115.38;109.43;;;12.10;99.90;;;;;;5090612;28;20378;-67
2022/09/23 02:23:38;;;;;;;115.10;109.13;;;12.10;99.90;;;;;;5092803;28;20650;-68
2022/09/23 02:26:10;;;;;;;119.78;113.35;;;12.00;99.90;;;;;;5092765;28;20375;-67
2022/09/23 02:28:47;;;;;;;114.28;108.47;;;12.10;99.90;;;;;;5095764;28;20921;-67
2022/09/23 02:31:25;;;;;;;122.20;115.82;;;12.10;99.90;;;;;;5094732;28;20386;-66
2022/09/23 02:33:58;;;;;;;118.05;111.95;;;12.10;99.90;;;;;;5093825;28;20496;-67
2022/09/23 02:36:44;;;;;;;118.70;112.43;;;12.10;99.90;;;;;;5094683;28;20477;-67
2022/09/23 02:39:13;;;;;;;118.40;112.13;;;12.10;99.90;;;;;;5093420;28;20389;-67
2022/09/23 02:41:54;;;;;;;129.55;122.75;;;12.00;99.90;;;;;;5092124;28;20417;-67
2022/09/23 02:44:22;;;;;;;119.90;113.70;;;12.10;99.90;;;;;;5091504;28;20756;-67
2022/09/23 02:46:50;;;;;;;122.38;115.90;;;12.00;99.90;;;;;;5090815;28;20415;-67
2022/09/23 02:49:21;;;;;;;129.98;123.07;;;12.00;99.90;;;;;;5090640;28;20425;-67
2022/09/23 02:51:47;;;;;;;125.70;119.00;;;11.90;99.90;;;;;;5090643;28;20381;-68
2022/09/23 02:54:16;;;;;;;126.13;119.40;;;11.90;99.90;;;;;;5090533;28;20412;-67
2022/09/23 02:56:42;;;;;;;125.00;118.32;;;12.00;99.90;;;;;;5090650;28;20392;-67
2022/09/23 02:59:09;;;;;;;123.78;117.10;;;12.00;99.90;;;;;;5091072;28;20466;-67
2022/09/23 03:02:16;;;;;;;124.60;118.03;;;11.90;99.90;;;;;;5090698;28;20836;-66
2022/09/23 03:04:57;;;;;;;130.85;123.82;;;11.90;99.90;;;;;;5092107;28;20409;-67
2022/09/23 03:07:30;;;;;;;121.70;115.28;;;11.90;99.90;;;;;;5091289;28;20921;-66
2022/09/23 03:10:32;;;;;;;132.00;125.00;;;11.90;99.90;;;;;;5090333;28;20820;-67
2022/09/23 03:13:16;;;;;;;123.63;117.15;;;11.90;99.90;;;;;;5089255;28;20390;-67
2022/09/23 03:15:58;;;;;;;120.28;113.88;;;11.90;99.90;;;;;;5088089;28;20409;-67
2022/09/23 03:18:39;;;;;;;127.97;121.20;;;11.80;99.90;;;;;;5087855;28;20762;-67
2022/09/23 03:21:21;;;;;;;126.20;119.50;;;11.80;99.90;;;;;;5088978;28;20393;-68
2022/09/23 03:23:47;;;;;;;120.18;113.88;;;11.80;99.90;;;;;;5089897;28;20574;-68
2022/09/23 03:26:35;;;;;;;122.22;115.68;;;11.80;99.90;;;;;;5089993;28;20378;-68
2022/09/23 03:29:08;;;;;;;129.13;122.13;;;11.70;99.90;;;;;;5090931;28;20516;-68
2022/09/23 03:31:36;;;;;;;122.87;116.17;;;11.70;99.90;;;;;;5092461;28;20828;-68
2022/09/23 03:34:07;;;;;;;126.88;120.25;;;11.70;99.90;;;;;;5092179;28;20810;-68
2022/09/23 03:36:50;;;;;;;128.82;121.93;;;11.70;99.90;;;;;;5092703;28;20533;-68
2022/09/23 03:39:40;;;;;;;117.90;111.55;;;11.70;99.90;;;;;;5093194;28;20542;-68
2022/09/23 03:42:23;;;;;;;123.55;117.05;;;11.70;99.90;;;;;;5093066;28;20485;-68
2022/09/23 03:44:53;;;;;;;125.65;118.97;;;11.70;99.90;;;;;;5094031;28;20389;-66
2022/09/23 03:47:19;;;;;;;122.43;115.80;;;11.70;99.90;;;;;;5093837;28;20474;-66
2022/09/23 03:49:47;;;;;;;120.97;114.28;;;11.60;99.90;;;;;;5093929;28;20393;-66
2022/09/23 03:52:15;;;;;;;127.50;120.57;;;11.60;99.90;;;;;;5091387;28;20420;-66
2022/09/23 03:54:40;;;;;;;123.55;117.05;;;11.60;99.90;;;;;;5089659;28;20450;-66
2022/09/23 03:57:06;;;;;;;122.57;115.93;;;11.60;99.90;;;;;;5091250;28;20386;-66
2022/09/23 03:59:32;;;;;;;119.53;113.10;;;11.60;99.90;;;;;;5091195;28;20887;-67
2022/09/23 04:01:58;;;;;;;117.78;111.63;;;11.60;99.90;;;;;;5091333;28;20390;-67
2022/09/23 04:04:26;;;;;;;126.75;119.65;;;11.50;99.90;;;;;;5091396;28;20797;-67
2022/09/23 04:06:53;;;;;;;119.35;113.03;;;11.50;99.90;;;;;;5090191;28;20456;-66
2022/09/23 04:09:19;;;;;;;123.00;116.43;;;11.50;99.90;;;;;;5090522;28;20381;-67
2022/09/23 04:11:46;;;;;;;118.78;112.28;;;11.60;99.90;;;;;;5090728;28;20386;-67
2022/09/23 04:14:12;;;;;;;128.13;120.97;;;11.60;99.90;;;;;;5089846;28;20502;-67
2022/09/23 04:16:38;;;;;;;120.50;114.18;;;11.60;99.90;;;;;;5085504;28;20489;-67
2022/09/23 04:19:03;;;;;;;125.80;119.03;;;11.60;99.90;;;;;;5081849;28;20712;-67
2022/09/23 04:21:30;;;;;;;118.93;112.53;;;11.60;99.90;;;;;;5081318;28;20669;-67
2022/09/23 04:23:56;;;;;;;117.82;111.55;;;11.60;99.90;;;;;;5085591;28;20484;-66
2022/09/23 04:26:21;;;;;;;112.80;106.77;;;11.60;99.90;;;;;;5084537;28;20465;-66
2022/09/23 04:28:48;;;;;;;118.70;112.30;;;11.60;99.90;;;;;;5082877;28;20770;-66
2022/09/23 04:31:13;;;;;;;117.65;111.40;;;11.60;99.90;;;;;;5082297;28;20416;-66
2022/09/23 04:33:39;;;;;;;122.80;116.20;;;11.60;99.90;;;;;;5085234;28;20649;-67
2022/09/23 04:36:05;;;;;;;114.53;108.43;;;11.60;99.90;;;;;;5087046;28;20484;-67
2022/09/23 04:38:30;;;;;;;115.70;109.07;;;11.60;99.90;;;;;;5085130;28;20389;-67
2022/09/23 04:40:56;;;;;;;115.50;109.00;;;11.50;99.90;;;;;;5086300;28;20381;-67
2022/09/23 04:43:22;;;;;;;111.40;105.53;;;11.50;99.90;;;;;;5085797;28;20451;-67
2022/09/23 04:45:58;;;;;;;105.47;99.65;;;11.60;99.90;;;;;;5088758;28;20413;-67
2022/09/23 04:48:23;;;;;;;109.78;103.88;;;11.50;99.90;;;;;;5088213;28;20398;-67
2022/09/23 04:50:49;;;;;;;110.03;104.03;;;11.50;99.90;;;;;;5086320;28;20439;-67
2022/09/23 04:53:15;;;;;;;111.40;105.20;;;11.60;99.90;;;;;;5085581;28;20601;-67
2022/09/23 04:55:42;;;;;;;109.43;103.60;;;11.50;99.90;;;;;;5083218;28;20402;-67
2022/09/23 04:58:08;;;;;;;105.80;100.13;;;11.50;99.90;;;;;;5082662;28;20394;-66
2022/09/23 05:00:35;;;;;;;96.70;91.50;;;11.50;99.90;;;;;;5083614;28;20845;-66
2022/09/23 05:03:01;;;;;;;111.70;105.57;;;11.50;99.90;;;;;;5080688;28;20397;-67
2022/09/23 05:05:27;;;;;;;109.93;103.93;;;11.50;99.90;;;;;;5081979;28;20563;-66
2022/09/23 05:07:54;;;;;;;107.05;101.03;;;11.50;99.90;;;;;;5084578;28;20631;-66
2022/09/23 05:10:20;;;;;;;106.20;100.53;;;11.40;99.90;;;;;;5085677;28;20386;-67
2022/09/23 05:12:46;;;;;;;106.87;101.00;;;11.50;99.90;;;;;;5086510;28;20450;-68
2022/09/23 05:15:15;;;;;;;106.10;100.47;;;11.50;99.90;;;;;;5084943;28;20510;-67
2022/09/23 05:17:43;;;;;;;97.68;92.53;;;11.50;99.90;;;;;;5082102;28;20378;-67
2022/09/23 05:20:10;;;;;;;101.68;96.05;;;11.50;99.90;;;;;;5082513;28;20404;-67
2022/09/23 05:22:35;;;;;;;102.22;96.72;;;11.50;99.90;;;;;;5085583;28;20397;-67
2022/09/23 05:25:01;;;;;;;106.77;101.17;;;11.50;99.90;;;;;;5085243;28;20941;-68
2022/09/23 05:27:27;;;;;;;104.87;99.20;;;11.50;99.90;;;;;;5085632;28;20837;-68
2022/09/23 05:29:53;;;;;;;103.95;98.35;;;11.60;99.90;;;;;;5084505;28;20461;-68
2022/09/23 05:32:19;;;;;;;100.60;95.13;;;11.60;99.90;;;;;;5080749;28;20398;-67
2022/09/23 05:34:45;;;;;;;96.93;91.72;;;11.60;99.90;;;;;;5081305;28;20662;-67
2022/09/23 05:37:11;;;;;;;96.43;91.03;;;11.50;99.90;;;;;;5081738;28;20394;-67
2022/09/23 05:39:36;;;;;;;99.50;94.20;;;11.50;99.90;;;;;;5081931;28;20446;-67
2022/09/23 05:42:03;;;;;;;98.57;92.87;;;11.50;99.90;;;;;;5079547;28;20378;-67
2022/09/23 05:44:28;;;;;;;95.32;90.10;;;11.50;99.90;;;;;;5079851;28;20476;-67
2022/09/23 05:46:54;;;;;;;93.20;88.23;;;11.50;99.90;;;;;;5078851;28;20504;-67
2022/09/23 05:49:20;;;;;;;95.67;90.50;;;11.50;99.90;;;;;;5080002;28;20854;-68
2022/09/23 05:51:45;;;;;;;96.97;91.65;;;11.50;99.90;;;;;;5079450;28;20753;-68
2022/09/23 05:54:11;;;;;;;99.32;94.03;;;11.50;99.90;;;;;;5076820;28;20402;-67
2022/09/23 05:56:37;;;;;;;97.15;92.05;;;11.60;99.90;;;;;;5079828;28;20793;-67
2022/09/23 05:59:03;;;;;;;99.50;94.13;;;11.60;99.90;;;;;;5081972;28;20720;-67
2022/09/23 06:01:32;;;;;;;95.72;90.63;;;11.70;99.90;;;;;;5083482;28;20409;-68
2022/09/23 06:03:59;;;;;;;102.60;97.07;;;11.70;99.90;;;;;;5082023;28;20386;-67
2022/09/23 06:06:31;;;;;;;97.73;92.53;;;11.70;99.90;;;;;;5082485;28;20536;-67
2022/09/23 06:08:58;;;;;;;96.15;90.85;;;11.70;99.90;;;;;;5084344;28;20389;-68
2022/09/23 06:11:24;;;;;;;101.47;95.90;;;11.70;99.90;;;;;;5083841;28;20793;-67
2022/09/23 06:13:54;;;;;;;102.07;96.43;;;11.80;99.90;;;;;;5082309;28;20390;-67
2022/09/23 06:16:20;;;;;;;100.05;94.60;;;11.80;99.90;;;;;;5081301;28;20677;-68
2022/09/23 06:18:46;;;;;;;93.07;87.97;;;11.70;99.90;;;;;;5079717;28;20383;-67
2022/09/23 06:21:16;;;;;;;93.90;88.60;;;11.70;99.90;;;;;;5080899;28;20370;-68
2022/09/23 06:23:43;;;;;;;99.27;93.33;;;11.70;99.90;;;;;;5082826;28;20539;-67
2022/09/23 06:26:11;;;;;;;94.35;89.25;;;11.80;99.90;;;;;;5081934;28;20700;-67
2022/09/23 06:28:38;;;;;;;96.00;90.75;;;11.80;99.90;;;;;;5081853;28;20382;-67
2022/09/23 06:31:08;;;;;;;88.43;83.63;;;11.80;99.90;;;;;;5083820;28;20382;-67
2022/09/23 06:33:34;;;;;;;92.68;87.50;;;11.80;99.90;;;;;;5083622;28;20596;-67
2022/09/23 06:36:02;;;;;;;97.15;91.78;;;11.80;99.90;;;;;;5084433;28;20394;-67
2022/09/23 06:38:29;;;;;;;90.93;86.05;;;11.80;99.90;;;;;;5084556;28;20374;-67
2022/09/23 06:40:56;;;;;;;98.72;93.03;;;11.80;99.90;;;;;;5085671;28;20714;-67
2022/09/23 06:43:23;;;;;;;91.10;85.95;;;11.80;99.90;;;;;;5082869;28;20371;-67
2022/09/23 06:45:57;;;;;;;95.90;90.43;;;11.80;99.90;;;;;;5085365;28;20390;-67
2022/09/23 06:48:23;;;;;;;88.72;83.55;;;11.80;99.90;;;;;;5084397;28;20401;-68
2022/09/23 06:50:52;;;;;;;92.47;87.47;;;11.80;99.90;;;;;;5086365;28;20738;-68
2022/09/23 06:53:22;;;;;;;91.60;86.47;;;11.70;99.90;;;;;;5085397;28;20386;-68
2022/09/23 06:55:48;;;;;;;92.88;87.55;;;11.70;99.90;;;;;;5087259;28;20949;-68
2022/09/23 06:58:14;;;;;;;89.00;84.00;;;11.80;99.90;;;;;;5085726;28;20470;-68
2022/09/23 07:00:40;;;;;;;88.55;83.70;;;11.80;99.90;;;;;;5083014;28;20596;-68
2022/09/23 07:03:07;;;;;;;84.75;79.95;;;11.80;99.90;;;;;;5083707;28;20684;-68
2022/09/23 07:05:33;;;;;;;89.88;84.93;;;11.80;99.90;;;;;;5081047;28;20484;-68
2022/09/23 07:07:59;;;;;;;87.45;82.75;;;11.80;99.90;;;;;;5083241;28;20682;-68
2022/09/23 07:10:28;;;;;;;84.57;79.88;;;11.90;99.90;;;;;;5079585;28;20417;-67
2022/09/23 07:12:54;;;;;;;86.03;81.43;;;11.90;99.90;;;;;;5081984;28;20378;-68
2022/09/23 07:15:19;;;;;;;83.40;78.80;;;12.00;99.90;;;;;;5081529;28;20402;-67
2022/09/23 07:17:45;;;;;;;94.87;89.43;;;12.00;99.90;;;;;;5078024;28;20561;-67
2022/09/23 07:20:11;;;;;;;88.17;83.37;;;12.00;99.90;;;;;;5077016;28;20386;-67
2022/09/23 07:22:37;;;;;;;89.95;85.00;;;11.90;99.90;;;;;;5078516;28;20382;-67
2022/09/23 07:25:04;;;;;;;89.43;84.50;;;12.00;99.90;;;;;;5078140;28;20412;-67
2022/09/23 07:27:30;;;;;;;94.03;89.13;;;12.00;99.90;;;;;;5078697;28;20666;-67
2022/09/23 07:29:56;;;;;;;81.32;76.78;;;12.00;99.90;;;;;;5080894;28;20390;-67
2022/09/23 07:32:22;;;;;;;85.07;80.55;;;11.80;99.90;;;;;;5080074;28;20394;-67
2022/09/23 07:34:48;;;;;;;83.30;78.43;;;11.80;99.90;;;;;;5081421;28;20741;-67
2022/09/23 07:37:15;;;;;;;82.50;77.97;;;11.90;99.90;;;;;;5080494;28;20692;-67
2022/09/23 07:39:42;;;;;;;79.53;75.18;;;11.70;99.90;;;;;;5075811;28;20968;-67
2022/09/23 07:42:08;;;;;;;77.03;72.88;;;11.70;99.90;;;;;;5075157;28;20650;-67
2022/09/23 07:44:34;;;;;;;78.57;74.40;;;11.80;99.90;;;;;;5075605;28;20412;-67
2022/09/23 07:47:00;;;;;;;81.32;77.03;;;12.00;99.90;;;;;;5074544;28;20409;-67
2022/09/23 07:49:26;;;;;;;79.15;74.65;;;12.00;99.90;;;;;;5073907;28;20798;-67
2022/09/23 07:51:52;;;;;;;86.28;81.55;;;12.10;99.90;;;;;;5075948;28;20397;-67
2022/09/23 07:54:19;;;;;;;76.23;72.03;;;11.90;99.90;;;;;;5077636;28;20541;-67
2022/09/23 07:56:46;;;;;;;78.80;74.38;;;12.00;99.90;;;;;;5075402;28;20786;-67
2022/09/23 07:59:17;;;;;;;52.42;49.55;;;12.10;99.90;;;;;;5079443;28;20397;-67
2022/09/23 08:01:49;;;;;;;56.60;53.58;;;12.30;99.90;;;;;;5079937;28;20393;-67
2022/09/23 08:04:20;;;;;;;57.47;54.35;;;12.30;99.90;;;;;;5081843;28;20477;-67
2022/09/23 08:06:52;;;;;;;57.55;54.45;;;12.30;99.90;;;;;;5080965;28;20555;-67
2022/09/23 08:09:20;;;;;;;57.03;53.93;;;12.40;99.90;;;;;;5081452;28;20474;-66
2022/09/23 08:11:46;;;;;;;59.67;56.55;;;12.50;99.90;;;;;;5081144;28;20413;-67
2022/09/23 08:14:14;;;;;;;61.72;58.33;;;12.60;99.90;;;;;;5077659;28;20398;-66
2022/09/23 08:16:40;;;;;;;61.85;58.53;;;12.70;99.90;;;;;;5078878;28;20775;-67
2022/09/23 08:19:07;;;;;;;66.45;62.60;;;12.60;99.90;;;;;;5076819;28;20471;-66
2022/09/23 08:21:33;;;;;;;59.17;56.00;;;12.50;99.90;;;;;;5077796;28;20819;-67
2022/09/23 08:23:59;;;;;;;64.53;61.08;;;12.60;99.90;;;;;;5078968;28;20683;-67
2022/09/23 08:26:25;;;;;;;61.55;58.10;;;12.70;99.90;;;;;;5076276;28;20510;-66
2022/09/23 08:28:55;;;;;;;60.70;57.55;;;12.80;99.90;;;;;;5076854;28;20600;-67
2022/09/23 08:31:21;;;;;;;71.15;67.32;;;12.90;99.90;;;;;;5078206;28;20824;-67
2022/09/23 08:33:52;;;;;;;66.70;63.15;;;13.00;99.90;;;;;;5077419;28;20683;-67
2022/09/23 08:36:18;;;;;;;68.27;64.57;;;13.10;99.90;;;;;;5078227;28;20393;-67
2022/09/23 08:38:43;;;;;;;70.23;66.30;;;13.20;99.90;;;;;;5077546;28;20382;-67
2022/09/23 08:41:30;;;;;;;69.50;65.63;;;13.20;99.90;;;;;;5076659;28;20395;-68
2022/09/23 08:44:15;;;;;;;72.82;68.93;;;13.30;99.90;;;;;;5075166;28;20662;-67
2022/09/23 08:46:51;;;;;;;77.75;73.57;;;13.30;99.90;;;;;;5076166;28;20748;-67
2022/09/23 08:49:24;;;;;;;74.60;70.80;;;13.30;99.90;;;;;;5080082;28;20579;-67
2022/09/23 08:51:53;;;;;;;75.45;71.55;;;13.40;99.90;;;;;;5078276;28;20446;-67
2022/09/23 08:54:19;;;;;;;81.28;76.97;;;13.50;99.90;;;;;;5078488;28;20428;-66
2022/09/23 08:56:50;;;;;;;75.87;71.77;;;13.40;99.90;;;;;;5077686;28;20378;-66
2022/09/23 08:59:40;;;;;;;74.90;71.00;;;13.40;99.90;;;;;;5078016;28;20462;-67
2022/09/23 09:02:16;;;;;;;75.75;71.85;;;13.40;99.90;;;;;;5077842;28;20638;-67
2022/09/23 09:04:44;;;;;;;74.67;70.60;;;13.40;99.90;;;;;;5078576;28;20558;-67
2022/09/23 09:07:17;;;;;;;76.57;72.50;;;13.60;99.90;;;;;;5080271;28;20406;-66
2022/09/23 09:09:50;;;;;;;73.30;69.38;;;13.50;99.90;;;;;;5080383;28;20844;-66
2022/09/23 09:12:43;;;;;;;70.32;66.60;;;13.50;99.90;;;;;;5079657;28;20386;-66
2022/09/23 09:15:27;;;;;;;71.97;68.27;;;13.70;99.90;;;;;;5080894;28;20414;-66
2022/09/23 09:18:10;;;;;;;75.82;71.93;;;13.70;99.90;;;;;;5080971;28;20381;-66
2022/09/23 09:20:55;;;;;;;81.93;77.47;;;13.80;99.90;;;;;;5077958;28;20381;-67
2022/09/23 09:23:27;;;;;;;79.22;75.07;;;13.90;99.90;;;;;;5077727;28;20475;-67
2022/09/23 09:25:56;;;;;;;81.00;76.80;;;14.00;99.90;;;;;;5076197;28;20552;-67
2022/09/23 09:28:31;;;;;;;80.55;76.45;;;14.10;99.90;;;;;;5074738;28;20381;-66
2022/09/23 09:31:00;;;;;;;80.63;76.53;;;14.20;99.90;;;;;;5075354;28;20386;-67
2022/09/23 09:33:33;;;;;;;84.93;80.53;;;14.30;99.90;;;;;;5072982;28;20381;-67
2022/09/23 09:36:07;;;;;;;89.82;85.15;;;14.40;99.90;;;;;;5078597;28;20424;-68
2022/09/23 09:38:34;;;;;;;87.50;83.07;;;14.40;99.90;;;;;;5080170;28;20473;-68
2022/09/23 09:41:11;;;;;;;87.97;83.28;;;14.50;99.90;;;;;;5082841;28;20894;-68
2022/09/23 09:43:39;;;;;;;90.00;85.22;;;14.50;99.90;;;;;;5082130;28;20382;-62
2022/09/23 09:46:32;;;;;;;83.18;78.65;;;14.50;99.90;;;;;;5084351;28;20830;-62
2022/09/23 09:49:06;;;;;;;88.65;83.95;;;14.70;99.90;;;;;;5084818;28;20393;-68
2022/09/23 09:51:32;;;;;;;89.00;84.20;;;14.70;99.90;;;;;;5082114;28;20389;-67
2022/09/23 09:54:22;;;;;;;92.40;87.53;;;14.70;99.90;;;;;;5084076;28;20378;-67
2022/09/23 09:56:48;;;;;;;91.60;86.90;;;14.80;99.90;;;;;;5085593;28;20382;-67
2022/09/23 09:59:24;;;;;;;86.50;82.00;;;14.80;99.90;;;;;;5088365;28;20569;-68
2022/09/23 10:02:11;;;;;;;86.63;81.85;;;14.90;99.90;;;;;;5091586;28;20401;-68
2022/09/23 10:04:37;;;;;;;86.18;81.85;;;15.00;99.90;;;;;;5087755;28;20501;-68
2022/09/23 10:07:06;;;;;;;93.53;88.53;;;15.10;99.90;;;;;;5082821;28;20493;-68
2022/09/23 10:09:35;;;;;;;85.60;81.22;;;15.20;99.90;;;;;;5086008;28;20378;-69
2022/09/23 10:12:02;;;;;;;83.35;78.97;;;15.30;99.90;;;;;;5088053;28;20382;-68
2022/09/23 10:14:29;;;;;;;90.05;85.40;;;15.40;99.90;;;;;;5086097;28;20667;-68
2022/09/23 10:17:04;;;;;;;95.53;90.63;;;15.50;99.90;;;;;;5083551;28;20501;-68
2022/09/23 10:19:31;;;;;;;94.22;89.32;;;15.60;99.90;;;;;;5083823;28;20726;-68
2022/09/23 10:22:03;;;;;;;88.47;83.68;;;15.70;99.90;;;;;;5086329;28;20381;-68
2022/09/23 10:24:31;;;;;;;69.80;66.03;;;15.90;99.90;;;;;;5086299;28;20494;-69
2022/09/23 10:27:30;;;;;;;66.53;62.90;;;15.90;99.90;;;;;;5085147;28;20669;-68
2022/09/23 10:29:58;;;;;;;69.18;65.25;;;15.90;99.90;;;;;;5085021;28;20390;-68
2022/09/23 10:32:31;;;;;;;61.00;57.70;;;16.10;99.90;;;;;;5086304;28;20689;-68
2022/09/23 10:35:03;;;;;;;61.50;58.28;;;16.30;99.90;;;;;;5085287;28;20848;-68
2022/09/23 10:37:50;;;;;;;62.90;59.45;;;16.40;99.90;;;;;;5082842;28;20574;-68
2022/09/23 10:46:44;;;;;;;77.50;73.20;;;16.90;99.90;;;;;;5086384;28;20389;-68
2022/09/23 10:49:13;;;;;;;81.00;76.35;;;17.00;99.90;;;;;;5084084;28;20813;-68
2022/09/23 10:51:58;;;;;;;82.47;77.97;;;17.00;99.90;;;;;;5082669;28;20385;-68
2022/09/23 10:55:07;;;;;;;84.32;79.75;;;17.00;99.90;;;;;;5083476;28;20507;-68
2022/09/23 10:57:48;;;;;;;97.80;92.50;;;17.10;99.90;;;;;;5040005;28;20448;-68
2022/09/23 11:00:17;;;;;;;99.00;93.63;;;17.00;99.90;;;;;;5079117;28;20910;-68
2022/09/23 11:03:23;;;;;;;93.00;87.82;;;17.10;99.90;;;;;;5080381;28;20670;-67
2022/09/23 11:05:59;;;;;;;85.38;80.85;;;17.20;99.90;;;;;;5080885;28;20425;-68
2022/09/23 11:08:49;;;;;;;92.40;87.20;;;17.40;99.90;;;;;;5059257;28;20676;-69
2022/09/23 11:11:15;;;;;;;96.18;91.07;;;17.50;99.90;;;;;;5041965;28;20699;-68
2022/09/23 11:14:03;;;;;;;92.87;87.77;;;17.50;99.90;;;;;;5043750;28;20800;-68
2022/09/23 11:16:42;;;;;;;80.70;76.43;;;17.30;99.90;;;;;;5039356;28;20431;-68
2022/09/23 11:19:25;;;;;;;90.57;85.90;;;17.40;99.90;;;;;;5054454;28;20394;-68
2022/09/23 11:21:58;;;;;;;94.38;89.50;;;17.20;99.90;;;;;;5039439;28;20783;-68
2022/09/23 11:24:47;;;;;;;99.32;94.22;;;17.40;99.90;;;;;;5040951;28;20646;-68
2022/09/23 11:27:24;;;;;;;86.13;81.55;;;17.50;99.90;;;;;;5061350;28;20390;-68
2022/09/23 11:30:06;;;;;;;79.90;75.80;;;17.50;99.90;;;;;;5039708;28;20866;-67
2022/09/23 11:33:03;;;;;;;93.13;88.32;;;17.40;99.90;;;;;;5055363;28;20434;-67
2022/09/23 11:35:40;;;;;;;96.78;91.65;;;17.40;99.90;;;;;;5038464;28;20912;-67
2022/09/23 11:38:24;;;;;;;83.30;79.00;;;17.50;99.90;;;;;;5049229;28;20390;-67
2022/09/23 11:40:54;;;;;;;96.05;91.03;;;17.50;99.90;;;;;;5066452;28;20376;-66
2022/09/23 11:43:28;;;;;;;100.47;95.15;;;17.40;99.90;;;;;;5051721;28;20380;-66
2022/09/23 11:45:57;;;;;;;73.87;69.80;;;17.40;99.90;;;;;;5052071;28;20391;-67
2022/09/23 11:48:32;;;;;;;94.10;89.07;;;17.50;99.90;;;;;;5052136;28;20406;-67
2022/09/23 11:51:11;;;;;;;99.97;94.75;;;17.60;99.90;;;;;;5051058;28;20412;-66
2022/09/23 11:54:00;;;;;;;97.10;92.03;;;17.60;99.90;;;;;;5050816;28;20683;-67
2022/09/23 11:56:45;;;;;;;98.40;93.17;;;17.60;99.90;;;;;;5050248;28;20428;-66
2022/09/23 11:59:30;;;;;;;99.13;93.85;;;17.70;99.90;;;;;;5040987;28;20661;-67
2022/09/23 12:02:02;;;;;;;96.05;90.97;;;17.80;99.90;;;;;;5037776;28;20396;-67
2022/09/23 12:04:39;;;;;;;97.55;92.38;;;17.90;99.90;;;;;;5037753;28;20445;-67
2022/09/23 12:07:07;;;;;;;73.97;70.10;;;17.90;99.90;;;;;;5064114;28;20410;-68
2022/09/23 12:09:52;;;;;;;79.07;75.13;;;17.70;99.90;;;;;;5078818;28;20378;-69
2022/09/23 12:12:30;;;;;;;72.40;68.72;;;17.60;99.90;;;;;;5077648;28;20639;-68
2022/09/23 12:15:13;;;;;;;67.50;63.90;;;17.60;99.90;;;;;;5079193;28;20409;-68
2022/09/23 12:18:02;;;;;;;68.55;64.95;;;17.50;99.90;;;;;;5079108;28;20758;-68
2022/09/23 12:20:43;;;;;;;65.38;61.95;;;17.60;99.90;;;;;;5079899;28;20458;-68
2022/09/23 12:23:25;;;;;;;73.35;69.55;;;17.70;99.90;;;;;;5081337;28;20381;-67
2022/09/23 12:25:59;;;;;;;67.90;64.40;;;17.70;99.90;;;;;;5080337;28;20382;-67
2022/09/23 12:28:30;;;;;;;69.82;66.18;;;17.70;99.90;;;;;;5078347;28;20384;-68
2022/09/23 12:31:00;;;;;;;63.58;60.15;;;17.70;99.90;;;;;;5079411;28;20401;-68
2022/09/23 12:33:28;;;;;;;64.82;61.42;;;17.90;99.90;;;;;;5080247;28;20469;-69
2022/09/23 12:36:05;;;;;;;66.53;63.13;;;18.00;99.90;;;;;;5079443;28;20405;-68
2022/09/23 12:38:39;;;;;;;67.83;64.33;;;18.10;99.90;;;;;;5080106;28;20382;-68
2022/09/23 12:41:36;;;;;;;75.28;71.38;;;18.40;99.90;;;;;;5078822;28;20649;-68
2022/09/23 12:44:11;;;;;;;78.13;74.13;;;18.60;99.90;;;;;;5082118;28;20662;-68
2022/09/23 12:46:37;;;;;;;77.05;73.03;;;18.70;99.90;;;;;;5078650;28;20398;-69
2022/09/23 12:49:09;;;;;;;77.18;73.03;;;18.80;99.90;;;;;;5076298;28;20390;-69
2022/09/23 12:51:36;;;;;;;77.53;73.55;;;18.60;99.90;;;;;;5081166;28;20439;-69
2022/09/23 12:54:04;;;;;;;72.07;68.30;;;18.60;99.90;;;;;;5083419;28;20374;-69
2022/09/23 12:56:33;;;;;;;72.90;68.85;;;18.60;99.90;;;;;;5081213;28;20390;-69